sensor_id;sensor_type;location;lat;lon;timestamp;pressure;altitude;pressure_sealevel;temperature;humidity
10466;BME280;5280;42.600;23.556;2023-11-19T00:00:06;93278.19;;;2.73;100.00
10466;BME280;5280;42.600;23.556;2023-11-19T00:02:37;93278.94;;;2.75;100.00
10466;BME280;5280;42.600;23.556;2023-11-19T00:05:04;93273.19;;;2.69;100.00
10466;BME280;5280;42.600;23.556;2023-11-19T00:07:34;93286.84;;;2.74;100.00
10466;BME280;5280;42.600;23.556;2023-11-19T00:10:01;93294.97;;;2.85;100.00
10466;BME280;5280;42.600;23.556;2023-11-19T00:12:37;93272.41;;;2.67;100.00
10466;BME280;5280;42.600;23.556;2023-11-19T00:15:06;93265.06;;;2.57;100.00
10466;BME280;5280;42.600;23.556;2023-11-19T00:17:36;93285.47;;;2.67;100.00
10466;BME280;5280;42.600;23.556;2023-11-19T00:20:05;93297.13;;;2.77;100.00
10466;BME280;5280;42.600;23.556;2023-11-19T00:22:33;93303.13;;;2.79;100.00
10466;BME280;5280;42.600;23.556;2023-11-19T00:25:00;93285.53;;;2.65;100.00
10466;BME280;5280;42.600;23.556;2023-11-19T00:27:27;93304.78;;;2.80;100.00
10466;BME280;5280;42.600;23.556;2023-11-19T00:29:58;93295.97;;;2.65;100.00
10466;BME280;5280;42.600;23.556;2023-11-19T00:32:30;93289.91;;;2.65;100.00
10466;BME280;5280;42.600;23.556;2023-11-19T00:34:57;93235.31;;;2.27;100.00
10466;BME280;5280;42.600;23.556;2023-11-19T00:37:24;93282.78;;;2.68;100.00
10466;BME280;5280;42.600;23.556;2023-11-19T00:39:51;93289.16;;;2.63;100.00
10466;BME280;5280;42.600;23.556;2023-11-19T00:42:18;93304.34;;;2.72;100.00
10466;BME280;5280;42.600;23.556;2023-11-19T00:44:45;93325.03;;;2.75;100.00
10466;BME280;5280;42.600;23.556;2023-11-19T00:47:17;93309.50;;;2.73;100.00
10466;BME280;5280;42.600;23.556;2023-11-19T00:49:46;93306.28;;;2.68;100.00
10466;BME280;5280;42.600;23.556;2023-11-19T00:52:13;93296.22;;;2.60;100.00
10466;BME280;5280;42.600;23.556;2023-11-19T00:54:40;93290.75;;;2.65;100.00
10466;BME280;5280;42.600;23.556;2023-11-19T00:57:07;93310.94;;;2.79;100.00
10466;BME280;5280;42.600;23.556;2023-11-19T00:59:34;93320.78;;;2.74;100.00
10466;BME280;5280;42.600;23.556;2023-11-19T01:02:01;93294.44;;;2.61;100.00
10466;BME280;5280;42.600;23.556;2023-11-19T01:04:33;93320.84;;;2.72;100.00
10466;BME280;5280;42.600;23.556;2023-11-19T01:07:01;93329.28;;;2.77;100.00
10466;BME280;5280;42.600;23.556;2023-11-19T01:09:29;93317.09;;;2.78;100.00
10466;BME280;5280;42.600;23.556;2023-11-19T01:11:57;93256.13;;;2.29;100.00
10466;BME280;5280;42.600;23.556;2023-11-19T01:14:25;93324.97;;;2.76;100.00
10466;BME280;5280;42.600;23.556;2023-11-19T01:16:52;93323.22;;;2.77;100.00
10466;BME280;5280;42.600;23.556;2023-11-19T01:19:21;93320.06;;;2.70;100.00
10466;BME280;5280;42.600;23.556;2023-11-19T01:21:49;93335.72;;;2.70;100.00
10466;BME280;5280;42.600;23.556;2023-11-19T01:24:17;93308.72;;;2.54;100.00
10466;BME280;5280;42.600;23.556;2023-11-19T01:26:44;93316.16;;;2.62;100.00
10466;BME280;5280;42.600;23.556;2023-11-19T01:29:11;93325.22;;;2.72;100.00
10466;BME280;5280;42.600;23.556;2023-11-19T01:31:40;93248.44;;;2.26;100.00
10466;BME280;5280;42.600;23.556;2023-11-19T01:34:07;93323.81;;;2.65;100.00
10466;BME280;5280;42.600;23.556;2023-11-19T01:36:34;93316.78;;;2.67;100.00
10466;BME280;5280;42.600;23.556;2023-11-19T01:39:02;93337.81;;;2.64;100.00
10466;BME280;5280;42.600;23.556;2023-11-19T01:41:36;93269.38;;;2.24;100.00
10466;BME280;5280;42.600;23.556;2023-11-19T01:44:06;93332.03;;;2.74;100.00
10466;BME280;5280;42.600;23.556;2023-11-19T01:46:33;93323.81;;;2.65;100.00
10466;BME280;5280;42.600;23.556;2023-11-19T01:49:01;93327.44;;;2.62;100.00
10466;BME280;5280;42.600;23.556;2023-11-19T01:51:29;93238.47;;;2.16;100.00
10466;BME280;5280;42.600;23.556;2023-11-19T01:53:56;93337.56;;;2.68;100.00
10466;BME280;5280;42.600;23.556;2023-11-19T01:56:26;93344.56;;;2.68;100.00
10466;BME280;5280;42.600;23.556;2023-11-19T01:58:54;93325.75;;;2.61;100.00
10466;BME280;5280;42.600;23.556;2023-11-19T02:01:22;93340.94;;;2.70;100.00
10466;BME280;5280;42.600;23.556;2023-11-19T02:03:49;93251.44;;;2.18;100.00
10466;BME280;5280;42.600;23.556;2023-11-19T02:06:16;93302.56;;;2.55;100.00
10466;BME280;5280;42.600;23.556;2023-11-19T02:08:43;93338.25;;;2.72;100.00
10466;BME280;5280;42.600;23.556;2023-11-19T02:11:10;93339.16;;;2.71;100.00
10466;BME280;5280;42.600;23.556;2023-11-19T02:13:39;93332.59;;;2.64;100.00
10466;BME280;5280;42.600;23.556;2023-11-19T02:16:07;93279.34;;;2.33;100.00
10466;BME280;5280;42.600;23.556;2023-11-19T02:18:34;93321.22;;;2.65;100.00
10466;BME280;5280;42.600;23.556;2023-11-19T02:21:01;93321.22;;;2.65;100.00
10466;BME280;5280;42.600;23.556;2023-11-19T02:23:30;93296.06;;;2.46;100.00
10466;BME280;5280;42.600;23.556;2023-11-19T02:26:02;93264.16;;;2.24;100.00
10466;BME280;5280;42.600;23.556;2023-11-19T02:28:32;93351.09;;;2.59;100.00
10466;BME280;5280;42.600;23.556;2023-11-19T02:31:00;93334.59;;;2.58;100.00
10466;BME280;5280;42.600;23.556;2023-11-19T02:33:27;93325.53;;;2.48;100.00
10466;BME280;5280;42.600;23.556;2023-11-19T02:35:54;93278.00;;;2.07;100.00
10466;BME280;5280;42.600;23.556;2023-11-19T02:38:21;93351.22;;;2.56;100.00
10466;BME280;5280;42.600;23.556;2023-11-19T02:40:48;93345.94;;;2.57;100.00
10466;BME280;5280;42.600;23.556;2023-11-19T02:43:15;93335.56;;;2.56;100.00
10466;BME280;5280;42.600;23.556;2023-11-19T02:45:45;93339.81;;;2.58;100.00
10466;BME280;5280;42.600;23.556;2023-11-19T02:48:11;93321.97;;;2.49;100.00
10466;BME280;5280;42.600;23.556;2023-11-19T02:50:39;93323.66;;;2.50;100.00
10466;BME280;5280;42.600;23.556;2023-11-19T02:53:06;93287.91;;;2.35;100.00
10466;BME280;5280;42.600;23.556;2023-11-19T02:55:33;93286.31;;;2.33;100.00
10466;BME280;5280;42.600;23.556;2023-11-19T02:58:03;93331.50;;;2.50;100.00
10466;BME280;5280;42.600;23.556;2023-11-19T03:00:35;93336.41;;;2.56;100.00
10466;BME280;5280;42.600;23.556;2023-11-19T03:03:09;93339.25;;;2.52;100.00
10466;BME280;5280;42.600;23.556;2023-11-19T03:05:45;93338.56;;;2.48;100.00
10466;BME280;5280;42.600;23.556;2023-11-19T03:08:14;93331.50;;;2.50;100.00
10466;BME280;5280;42.600;23.556;2023-11-19T03:10:41;93326.81;;;2.40;100.00
10466;BME280;5280;42.600;23.556;2023-11-19T03:13:11;93346.38;;;2.48;100.00
10466;BME280;5280;42.600;23.556;2023-11-19T03:15:38;93342.09;;;2.47;100.00
10466;BME280;5280;42.600;23.556;2023-11-19T03:18:05;93353.44;;;2.46;100.00
10466;BME280;5280;42.600;23.556;2023-11-19T03:20:33;93335.56;;;2.39;100.00
10466;BME280;5280;42.600;23.556;2023-11-19T03:23:00;93344.81;;;2.44;100.00
10466;BME280;5280;42.600;23.556;2023-11-19T03:25:28;93367.88;;;2.53;100.00
10466;BME280;5280;42.600;23.556;2023-11-19T03:27:59;93363.78;;;2.48;100.00
10466;BME280;5280;42.600;23.556;2023-11-19T03:30:26;93336.31;;;2.41;100.00
10466;BME280;5280;42.600;23.556;2023-11-19T03:32:54;93343.75;;;2.31;100.00
10466;BME280;5280;42.600;23.556;2023-11-19T03:35:19;93362.34;;;2.42;100.00
10466;BME280;5280;42.600;23.556;2023-11-19T03:37:48;93282.03;;;1.96;100.00
10466;BME280;5280;42.600;23.556;2023-11-19T03:40:14;93353.59;;;2.43;100.00
10466;BME280;5280;42.600;23.556;2023-11-19T03:42:41;93365.25;;;2.53;100.00
10466;BME280;5280;42.600;23.556;2023-11-19T03:45:09;93364.88;;;2.44;100.00
10466;BME280;5280;42.600;23.556;2023-11-19T03:47:36;93330.78;;;2.30;100.00
10466;BME280;5280;42.600;23.556;2023-11-19T03:50:05;93362.56;;;2.38;100.00
10466;BME280;5280;42.600;23.556;2023-11-19T03:52:33;93368.16;;;2.47;100.00
10466;BME280;5280;42.600;23.556;2023-11-19T03:55:01;93305.84;;;2.07;100.00
10466;BME280;5280;42.600;23.556;2023-11-19T03:57:29;93360.31;;;2.30;100.00
10466;BME280;5280;42.600;23.556;2023-11-19T03:59:56;93376.56;;;2.35;100.00
10466;BME280;5280;42.600;23.556;2023-11-19T04:02:24;93345.09;;;2.21;100.00
10466;BME280;5280;42.600;23.556;2023-11-19T04:04:53;93347.59;;;2.24;100.00
10466;BME280;5280;42.600;23.556;2023-11-19T04:07:21;93372.53;;;2.47;100.00
10466;BME280;5280;42.600;23.556;2023-11-19T04:09:48;93366.31;;;2.32;100.00
10466;BME280;5280;42.600;23.556;2023-11-19T04:12:16;93366.84;;;2.39;100.00
10466;BME280;5280;42.600;23.556;2023-11-19T04:14:43;93374.47;;;2.43;100.00
10466;BME280;5280;42.600;23.556;2023-11-19T04:17:10;93380.53;;;2.44;100.00
10466;BME280;5280;42.600;23.556;2023-11-19T04:19:36;93369.66;;;2.34;100.00
10466;BME280;5280;42.600;23.556;2023-11-19T04:22:06;93370.38;;;2.38;100.00
10466;BME280;5280;42.600;23.556;2023-11-19T04:24:33;93391.56;;;2.49;100.00
10466;BME280;5280;42.600;23.556;2023-11-19T04:27:00;93387.78;;;2.37;100.00
10466;BME280;5280;42.600;23.556;2023-11-19T04:29:29;93389.31;;;2.41;100.00
10466;BME280;5280;42.600;23.556;2023-11-19T04:31:57;93361.44;;;2.25;100.00
10466;BME280;5280;42.600;23.556;2023-11-19T04:34:26;93381.44;;;2.43;100.00
10466;BME280;5280;42.600;23.556;2023-11-19T04:36:53;93339.09;;;2.02;100.00
10466;BME280;5280;42.600;23.556;2023-11-19T04:39:20;93398.84;;;2.42;100.00
10466;BME280;5280;42.600;23.556;2023-11-19T04:41:48;93369.97;;;2.28;100.00
10466;BME280;5280;42.600;23.556;2023-11-19T04:44:15;93361.03;;;2.15;100.00
10466;BME280;5280;42.600;23.556;2023-11-19T04:46:47;93390.22;;;2.40;100.00
10466;BME280;5280;42.600;23.556;2023-11-19T04:49:14;93352.94;;;2.21;100.00
10466;BME280;5280;42.600;23.556;2023-11-19T04:51:43;93391.63;;;2.47;100.00
10466;BME280;5280;42.600;23.556;2023-11-19T04:54:10;93385.00;;;2.40;100.00
10466;BME280;5280;42.600;23.556;2023-11-19T04:56:37;93374.88;;;2.34;100.00
10466;BME280;5280;42.600;23.556;2023-11-19T04:59:04;93362.06;;;2.30;100.00
10466;BME280;5280;42.600;23.556;2023-11-19T05:01:32;93399.19;;;2.35;100.00
10466;BME280;5280;42.600;23.556;2023-11-19T05:04:00;93395.19;;;2.28;100.00
10466;BME280;5280;42.600;23.556;2023-11-19T05:06:27;93404.63;;;2.30;100.00
10466;BME280;5280;42.600;23.556;2023-11-19T05:08:55;93365.59;;;1.93;100.00
10466;BME280;5280;42.600;23.556;2023-11-19T05:11:22;93436.00;;;2.29;100.00
10466;BME280;5280;42.600;23.556;2023-11-19T05:13:49;93378.97;;;2.04;100.00
10466;BME280;5280;42.600;23.556;2023-11-19T05:16:16;93433.94;;;2.35;100.00
10466;BME280;5280;42.600;23.556;2023-11-19T05:18:44;93367.19;;;1.95;100.00
10466;BME280;5280;42.600;23.556;2023-11-19T05:21:13;93421.19;;;2.29;100.00
10466;BME280;5280;42.600;23.556;2023-11-19T05:23:40;93369.88;;;2.12;100.00
10466;BME280;5280;42.600;23.556;2023-11-19T05:26:07;93408.16;;;2.29;100.00
10466;BME280;5280;42.600;23.556;2023-11-19T05:28:34;93411.25;;;2.37;100.00
10466;BME280;5280;42.600;23.556;2023-11-19T05:31:01;93407.78;;;2.37;100.00
10466;BME280;5280;42.600;23.556;2023-11-19T05:33:28;93394.19;;;2.30;100.00
10466;BME280;5280;42.600;23.556;2023-11-19T05:35:54;93417.66;;;2.30;100.00
10466;BME280;5280;42.600;23.556;2023-11-19T05:38:24;93425.19;;;2.36;100.00
10466;BME280;5280;42.600;23.556;2023-11-19T05:40:50;93420.28;;;2.30;100.00
10466;BME280;5280;42.600;23.556;2023-11-19T05:43:17;93439.94;;;2.37;100.00
10466;BME280;5280;42.600;23.556;2023-11-19T05:45:44;93420.16;;;2.33;100.00
10466;BME280;5280;42.600;23.556;2023-11-19T05:48:11;93397.19;;;2.23;100.00
10466;BME280;5280;42.600;23.556;2023-11-19T05:50:38;93416.75;;;2.31;100.00
10466;BME280;5280;42.600;23.556;2023-11-19T05:53:05;93441.47;;;2.41;100.00
10466;BME280;5280;42.600;23.556;2023-11-19T05:55:37;93415.50;;;2.21;100.00
10466;BME280;5280;42.600;23.556;2023-11-19T05:58:10;93434.84;;;2.34;100.00
10466;BME280;5280;42.600;23.556;2023-11-19T06:00:38;93425.34;;;2.33;100.00
10466;BME280;5280;42.600;23.556;2023-11-19T06:03:05;93370.53;;;1.99;100.00
10466;BME280;5280;42.600;23.556;2023-11-19T06:05:32;93385.31;;;1.98;100.00
10466;BME280;5280;42.600;23.556;2023-11-19T06:07:59;93411.50;;;2.14;100.00
10466;BME280;5280;42.600;23.556;2023-11-19T06:10:28;93390.41;;;2.00;100.00
10466;BME280;5280;42.600;23.556;2023-11-19T06:12:58;93417.41;;;1.99;100.00
10466;BME280;5280;42.600;23.556;2023-11-19T06:15:26;93445.81;;;2.24;100.00
10466;BME280;5280;42.600;23.556;2023-11-19T06:17:53;93454.94;;;2.32;100.00
10466;BME280;5280;42.600;23.556;2023-11-19T06:20:20;93406.00;;;2.01;100.00
10466;BME280;5280;42.600;23.556;2023-11-19T06:22:47;93461.56;;;2.39;100.00
10466;BME280;5280;42.600;23.556;2023-11-19T06:25:14;93446.66;;;2.24;100.00
10466;BME280;5280;42.600;23.556;2023-11-19T06:27:41;93441.28;;;2.27;100.00
10466;BME280;5280;42.600;23.556;2023-11-19T06:30:11;93451.97;;;2.40;100.00
10466;BME280;5280;42.600;23.556;2023-11-19T06:32:38;93443.72;;;2.30;100.00
10466;BME280;5280;42.600;23.556;2023-11-19T06:35:06;93442.88;;;2.30;100.00
10466;BME280;5280;42.600;23.556;2023-11-19T06:37:33;93459.88;;;2.38;100.00
10466;BME280;5280;42.600;23.556;2023-11-19T06:40:03;93436.06;;;2.27;100.00
10466;BME280;5280;42.600;23.556;2023-11-19T06:42:33;93425.00;;;2.22;100.00
10466;BME280;5280;42.600;23.556;2023-11-19T06:45:00;93454.88;;;2.34;100.00
10466;BME280;5280;42.600;23.556;2023-11-19T06:47:28;93451.28;;;2.36;100.00
10466;BME280;5280;42.600;23.556;2023-11-19T06:49:55;93460.56;;;2.42;100.00
10466;BME280;5280;42.600;23.556;2023-11-19T06:52:22;93446.97;;;2.35;100.00
10466;BME280;5280;42.600;23.556;2023-11-19T06:54:49;93460.91;;;2.34;100.00
10466;BME280;5280;42.600;23.556;2023-11-19T06:57:16;93443.94;;;2.26;100.00
10466;BME280;5280;42.600;23.556;2023-11-19T06:59:43;93436.78;;;2.12;100.00
10466;BME280;5280;42.600;23.556;2023-11-19T07:02:10;93462.72;;;2.34;100.00
10466;BME280;5280;42.600;23.556;2023-11-19T07:04:38;93471.16;;;2.39;100.00
10466;BME280;5280;42.600;23.556;2023-11-19T07:07:06;93467.94;;;2.34;100.00
10466;BME280;5280;42.600;23.556;2023-11-19T07:09:33;93471.44;;;2.33;100.00
10466;BME280;5280;42.600;23.556;2023-11-19T07:12:03;93482.22;;;2.25;100.00
10466;BME280;5280;42.600;23.556;2023-11-19T07:14:30;93494.13;;;2.31;100.00
10466;BME280;5280;42.600;23.556;2023-11-19T07:16:57;93498.63;;;2.27;100.00
10466;BME280;5280;42.600;23.556;2023-11-19T07:19:24;93475.81;;;2.13;100.00
10466;BME280;5280;42.600;23.556;2023-11-19T07:21:52;93460.88;;;1.98;100.00
10466;BME280;5280;42.600;23.556;2023-11-19T07:24:19;93519.34;;;2.30;100.00
10466;BME280;5280;42.600;23.556;2023-11-19T07:26:47;93505.81;;;2.22;100.00
10466;BME280;5280;42.600;23.556;2023-11-19T07:29:14;93499.75;;;2.22;100.00
10466;BME280;5280;42.600;23.556;2023-11-19T07:31:43;93507.22;;;2.29;100.00
10466;BME280;5280;42.600;23.556;2023-11-19T07:34:20;93460.50;;;2.06;100.00
10466;BME280;5280;42.600;23.556;2023-11-19T07:36:49;93461.31;;;1.89;100.00
10466;BME280;5280;42.600;23.556;2023-11-19T07:39:35;93480.72;;;2.01;100.00
10466;BME280;5280;42.600;23.556;2023-11-19T07:42:06;93523.81;;;2.28;100.00
10466;BME280;5280;42.600;23.556;2023-11-19T07:44:35;93523.06;;;2.25;100.00
10466;BME280;5280;42.600;23.556;2023-11-19T07:47:44;93473.06;;;1.98;100.00
10466;BME280;5280;42.600;23.556;2023-11-19T08:19:57;93529.44;;;2.56;100.00
10466;BME280;5280;42.600;23.556;2023-11-19T08:28:05;93524.88;;;2.43;100.00
10466;BME280;5280;42.600;23.556;2023-11-19T08:30:50;93528.97;;;2.48;100.00
10466;BME280;5280;42.600;23.556;2023-11-19T08:33:18;93486.03;;;2.18;100.00
10466;BME280;5280;42.600;23.556;2023-11-19T08:35:53;93500.19;;;2.31;100.00
10466;BME280;5280;42.600;23.556;2023-11-19T08:38:20;93528.00;;;2.49;100.00
10466;BME280;5280;42.600;23.556;2023-11-19T08:41:25;93487.56;;;2.22;100.00
10466;BME280;5280;42.600;23.556;2023-11-19T08:44:17;93502.16;;;2.26;100.00
10466;BME280;5280;42.600;23.556;2023-11-19T08:46:50;93538.13;;;2.38;100.00
10466;BME280;5280;42.600;23.556;2023-11-19T08:49:22;93520.41;;;2.26;100.00
10466;BME280;5280;42.600;23.556;2023-11-19T08:52:10;93549.66;;;2.51;100.00
10466;BME280;5280;42.600;23.556;2023-11-19T09:00:54;93487.78;;;2.17;100.00
10466;BME280;5280;42.600;23.556;2023-11-19T09:03:21;93546.09;;;2.54;100.00
10466;BME280;5280;42.600;23.556;2023-11-19T09:05:49;93546.91;;;2.54;100.00
10466;BME280;5280;42.600;23.556;2023-11-19T09:08:19;93542.09;;;2.64;100.00
10466;BME280;5280;42.600;23.556;2023-11-19T09:10:46;93530.91;;;2.62;100.00
10466;BME280;5280;42.600;23.556;2023-11-19T09:13:13;93533.59;;;2.60;100.00
10466;BME280;5280;42.600;23.556;2023-11-19T09:15:41;93516.25;;;2.59;100.00
10466;BME280;5280;42.600;23.556;2023-11-19T09:18:08;93526.53;;;2.63;100.00
10466;BME280;5280;42.600;23.556;2023-11-19T09:20:37;93471.56;;;2.48;100.00
10466;BME280;5280;42.600;23.556;2023-11-19T09:23:15;93524.75;;;2.82;100.00
10466;BME280;5280;42.600;23.556;2023-11-19T09:28:35;93514.25;;;2.65;100.00
10466;BME280;5280;42.600;23.556;2023-11-19T09:31:03;93553.03;;;2.91;100.00
10466;BME280;5280;42.600;23.556;2023-11-19T09:33:42;93497.50;;;2.51;100.00
10466;BME280;5280;42.600;23.556;2023-11-19T09:36:30;93499.25;;;2.51;100.00
10466;BME280;5280;42.600;23.556;2023-11-19T09:38:57;93491.81;;;2.43;100.00
10466;BME280;5280;42.600;23.556;2023-11-19T09:41:33;93513.84;;;2.74;100.00
10466;BME280;5280;42.600;23.556;2023-11-19T09:44:22;93495.88;;;2.68;100.00
10466;BME280;5280;42.600;23.556;2023-11-19T09:47:01;93491.41;;;2.70;100.00
10466;BME280;5280;42.600;23.556;2023-11-19T09:54:56;93518.41;;;3.04;100.00
10466;BME280;5280;42.600;23.556;2023-11-19T09:57:31;93512.84;;;3.12;100.00
10466;BME280;5280;42.600;23.556;2023-11-19T10:00:27;93447.03;;;2.88;100.00
10466;BME280;5280;42.600;23.556;2023-11-19T10:03:14;93496.78;;;3.20;100.00
10466;BME280;5280;42.600;23.556;2023-11-19T10:05:41;93524.53;;;3.39;100.00
10466;BME280;5280;42.600;23.556;2023-11-19T10:08:09;93505.88;;;3.47;100.00
10466;BME280;5280;42.600;23.556;2023-11-19T10:10:44;93460.72;;;3.28;100.00
10466;BME280;5280;42.600;23.556;2023-11-19T10:13:11;93499.50;;;3.53;100.00
10466;BME280;5280;42.600;23.556;2023-11-19T10:15:43;93497.94;;;3.66;100.00
10466;BME280;5280;42.600;23.556;2023-11-19T10:18:17;93482.19;;;3.67;100.00
10466;BME280;5280;42.600;23.556;2023-11-19T10:20:45;93488.88;;;3.56;100.00
10466;BME280;5280;42.600;23.556;2023-11-19T10:23:12;93510.84;;;3.69;100.00
10466;BME280;5280;42.600;23.556;2023-11-19T10:25:39;93422.38;;;3.11;100.00
10466;BME280;5280;42.600;23.556;2023-11-19T10:36:12;93458.56;;;3.19;100.00
10466;BME280;5280;42.600;23.556;2023-11-19T10:39:11;93505.63;;;3.52;100.00
10466;BME280;5280;42.600;23.556;2023-11-19T10:41:43;93478.06;;;3.46;100.00
10466;BME280;5280;42.600;23.556;2023-11-19T10:47:02;93484.56;;;3.55;100.00
10466;BME280;5280;42.600;23.556;2023-11-19T10:49:56;93484.56;;;3.55;100.00
10466;BME280;5280;42.600;23.556;2023-11-19T10:52:31;93451.72;;;3.33;100.00
10466;BME280;5280;42.600;23.556;2023-11-19T10:55:02;93475.75;;;3.57;100.00
10466;BME280;5280;42.600;23.556;2023-11-19T10:57:35;93462.63;;;3.41;100.00
10466;BME280;5280;42.600;23.556;2023-11-19T11:00:04;93471.00;;;3.31;100.00
10466;BME280;5280;42.600;23.556;2023-11-19T11:02:41;93480.91;;;3.41;100.00
10466;BME280;5280;42.600;23.556;2023-11-19T11:05:09;93480.59;;;3.47;100.00
10466;BME280;5280;42.600;23.556;2023-11-19T11:07:40;93446.50;;;3.33;100.00
10466;BME280;5280;42.600;23.556;2023-11-19T11:10:08;93449.38;;;3.44;100.00
10466;BME280;5280;42.600;23.556;2023-11-19T11:12:37;93477.28;;;3.61;100.00
10466;BME280;5280;42.600;23.556;2023-11-19T11:15:08;93472.72;;;3.65;100.00
10466;BME280;5280;42.600;23.556;2023-11-19T11:17:39;93472.78;;;3.80;100.00
10466;BME280;5280;42.600;23.556;2023-11-19T11:20:08;93439.84;;;3.61;100.00
10466;BME280;5280;42.600;23.556;2023-11-19T11:22:49;93392.66;;;3.31;100.00
10466;BME280;5280;42.600;23.556;2023-11-19T11:25:25;93472.03;;;3.78;100.00
10466;BME280;5280;42.600;23.556;2023-11-19T11:28:23;93419.13;;;3.58;100.00
10466;BME280;5280;42.600;23.556;2023-11-19T11:31:25;93460.19;;;3.88;100.00
10466;BME280;5280;42.600;23.556;2023-11-19T11:34:16;93455.09;;;3.85;100.00
10466;BME280;5280;42.600;23.556;2023-11-19T11:36:57;93414.50;;;3.63;100.00
10466;BME280;5280;42.600;23.556;2023-11-19T11:39:30;93462.69;;;3.90;100.00
10466;BME280;5280;42.600;23.556;2023-11-19T11:42:33;93470.47;;;3.92;100.00
10466;BME280;5280;42.600;23.556;2023-11-19T11:45:04;93471.13;;;3.95;100.00
10466;BME280;5280;42.600;23.556;2023-11-19T11:48:11;93465.78;;;3.98;100.00
10466;BME280;5280;42.600;23.556;2023-11-19T11:50:57;93428.00;;;3.71;100.00
10466;BME280;5280;42.600;23.556;2023-11-19T11:53:25;93450.16;;;3.97;100.00
10466;BME280;5280;42.600;23.556;2023-11-19T11:55:55;93405.09;;;3.59;100.00
10466;BME280;5280;42.600;23.556;2023-11-19T11:58:30;93374.34;;;3.48;100.00
10466;BME280;5280;42.600;23.556;2023-11-19T12:00:59;93458.06;;;3.95;100.00
10466;BME280;5280;42.600;23.556;2023-11-19T12:03:28;93424.78;;;3.66;100.00
10466;BME280;5280;42.600;23.556;2023-11-19T12:05:59;93465.56;;;3.85;100.00
10466;BME280;5280;42.600;23.556;2023-11-19T12:08:29;93460.00;;;3.92;100.00
10466;BME280;5280;42.600;23.556;2023-11-19T12:11:05;93412.13;;;3.74;100.00
10466;BME280;5280;42.600;23.556;2023-11-19T12:13:53;93399.06;;;3.74;100.00
10466;BME280;5280;42.600;23.556;2023-11-19T12:16:28;93454.13;;;4.04;100.00
10466;BME280;5280;42.600;23.556;2023-11-19T12:19:02;93463.75;;;4.19;100.00
10466;BME280;5280;42.600;23.556;2023-11-19T12:21:31;93412.75;;;3.79;100.00
10466;BME280;5280;42.600;23.556;2023-11-19T12:24:03;93449.34;;;4.12;100.00
10466;BME280;5280;42.600;23.556;2023-11-19T12:26:47;93436.19;;;4.13;100.00
10466;BME280;5280;42.600;23.556;2023-11-19T12:29:19;93426.47;;;4.15;100.00
10466;BME280;5280;42.600;23.556;2023-11-19T12:31:53;93427.00;;;4.22;100.00
10466;BME280;5280;42.600;23.556;2023-11-19T12:34:21;93410.44;;;4.06;100.00
10466;BME280;5280;42.600;23.556;2023-11-19T12:36:49;93420.41;;;4.15;100.00
10466;BME280;5280;42.600;23.556;2023-11-19T12:39:29;93400.81;;;3.90;100.00
10466;BME280;5280;42.600;23.556;2023-11-19T12:41:58;93391.47;;;4.02;100.00
10466;BME280;5280;42.600;23.556;2023-11-19T12:44:26;93385.63;;;3.97;100.00
10466;BME280;5280;42.600;23.556;2023-11-19T12:47:00;93389.00;;;3.99;100.00
10466;BME280;5280;42.600;23.556;2023-11-19T12:49:28;93402.41;;;4.09;100.00
10466;BME280;5280;42.600;23.556;2023-11-19T12:51:55;93384.97;;;4.09;100.00
10466;BME280;5280;42.600;23.556;2023-11-19T12:54:32;93400.16;;;4.03;100.00
10466;BME280;5280;42.600;23.556;2023-11-19T12:57:02;93371.44;;;3.85;100.00
10466;BME280;5280;42.600;23.556;2023-11-19T12:59:32;93367.31;;;3.81;100.00
10466;BME280;5280;42.600;23.556;2023-11-19T13:02:05;93416.94;;;4.14;100.00
10466;BME280;5280;42.600;23.556;2023-11-19T13:04:34;93388.50;;;3.93;100.00
10466;BME280;5280;42.600;23.556;2023-11-19T13:07:01;93410.38;;;4.07;100.00
10466;BME280;5280;42.600;23.556;2023-11-19T13:09:30;93356.78;;;3.83;100.00
10466;BME280;5280;42.600;23.556;2023-11-19T13:11:58;93340.09;;;3.85;100.00
10466;BME280;5280;42.600;23.556;2023-11-19T13:14:37;93397.69;;;4.15;100.00
10466;BME280;5280;42.600;23.556;2023-11-19T13:17:05;93361.19;;;3.98;100.00
10466;BME280;5280;42.600;23.556;2023-11-19T13:19:32;93340.09;;;3.85;100.00
10466;BME280;5280;42.600;23.556;2023-11-19T13:22:00;93391.38;;;4.19;100.00
10466;BME280;5280;42.600;23.556;2023-11-19T13:24:28;93376.53;;;4.20;100.00
10466;BME280;5280;42.600;23.556;2023-11-19T13:26:55;93377.97;;;4.25;100.00
10466;BME280;5280;42.600;23.556;2023-11-19T13:29:48;93372.81;;;4.24;100.00
10466;BME280;5280;42.600;23.556;2023-11-19T13:32:22;93353.56;;;4.25;100.00
10466;BME280;5280;42.600;23.556;2023-11-19T13:34:53;93339.91;;;4.04;100.00
10466;BME280;5280;42.600;23.556;2023-11-19T13:37:20;93338.06;;;4.06;100.00
10466;BME280;5280;42.600;23.556;2023-11-19T13:39:48;93365.22;;;4.35;100.00
10466;BME280;5280;42.600;23.556;2023-11-19T13:42:19;93372.72;;;4.41;100.00
10466;BME280;5280;42.600;23.556;2023-11-19T13:44:48;93326.59;;;4.09;100.00
10466;BME280;5280;42.600;23.556;2023-11-19T13:47:15;93373.56;;;4.42;100.00
10466;BME280;5280;42.600;23.556;2023-11-19T13:49:43;93375.47;;;4.54;100.00
10466;BME280;5280;42.600;23.556;2023-11-19T13:52:11;93368.09;;;4.46;100.00
10466;BME280;5280;42.600;23.556;2023-11-19T13:54:40;93309.38;;;4.20;100.00
10466;BME280;5280;42.600;23.556;2023-11-19T13:57:07;93369.84;;;4.46;100.00
10466;BME280;5280;42.600;23.556;2023-11-19T13:59:39;93320.53;;;4.08;100.00
10466;BME280;5280;42.600;23.556;2023-11-19T14:02:12;93388.75;;;4.51;100.00
10466;BME280;5280;42.600;23.556;2023-11-19T14:04:41;93395.94;;;4.47;100.00
10466;BME280;5280;42.600;23.556;2023-11-19T14:07:08;93374.09;;;4.32;100.00
10466;BME280;5280;42.600;23.556;2023-11-19T14:09:35;93415.31;;;4.59;100.00
10466;BME280;5280;42.600;23.556;2023-11-19T14:12:05;93402.50;;;4.54;100.00
10466;BME280;5280;42.600;23.556;2023-11-19T14:14:34;93380.00;;;4.36;100.00
10466;BME280;5280;42.600;23.556;2023-11-19T14:17:45;93415.78;;;4.51;100.00